createdAt,value
2017-12-02T00:00:47.434Z,29.89
2017-12-02T00:01:48.069Z,29.85
2017-12-02T00:03:48.859Z,29.83
2017-12-02T00:06:50.296Z,29.82
2017-12-02T00:07:50.934Z,29.85
2017-12-02T00:08:51.249Z,29.83
2017-12-02T00:10:52.198Z,29.97
2017-12-02T00:11:52.681Z,30.04
2017-12-02T00:12:53.156Z,30.08
2017-12-02T00:13:53.633Z,30.13
2017-12-02T00:15:54.586Z,30.21
2017-12-02T00:16:55.062Z,30.26
2017-12-02T00:17:55.583Z,30.31
2017-12-02T00:18:56.043Z,30.35
2017-12-02T00:20:08.296Z,30.41
2017-12-02T00:20:56.968Z,30.44
2017-12-02T00:21:57.436Z,30.48
2017-12-02T00:23:58.395Z,30.56
2017-12-02T00:24:58.920Z,30.61
2017-12-02T00:28:00.296Z,30.73
2017-12-02T00:29:00.767Z,30.76
2017-12-02T00:30:01.485Z,30.80
2017-12-02T00:32:02.196Z,30.86
2017-12-02T00:33:02.663Z,30.91
2017-12-02T00:35:15.156Z,30.96
2017-12-02T00:37:04.571Z,31.01
2017-12-02T00:39:05.517Z,31.06
2017-12-02T00:40:06.036Z,31.09
2017-12-02T00:41:06.465Z,31.12
2017-12-02T00:44:07.881Z,31.20
2017-12-02T00:45:20.143Z,31.22
2017-12-02T00:46:08.835Z,31.24
2017-12-02T00:47:09.309Z,31.28
2017-12-02T00:48:09.783Z,31.30
2017-12-02T00:49:10.255Z,31.31
2017-12-02T00:50:10.780Z,31.35
2017-12-02T00:51:11.200Z,31.36
2017-12-02T00:52:11.842Z,31.38
2017-12-02T00:53:12.199Z,31.40
2017-12-02T00:54:12.622Z,31.41
2017-12-02T00:55:13.191Z,31.42
2017-12-02T00:56:13.570Z,31.44
2017-12-02T00:59:14.989Z,31.53
2017-12-02T01:02:16.401Z,31.59
2017-12-02T01:03:16.881Z,31.62
2017-12-02T01:04:17.354Z,31.64
2017-12-02T01:05:17.877Z,31.65
2017-12-02T01:06:18.319Z,31.68
2017-12-02T01:08:19.245Z,31.69
2017-12-02T01:09:19.714Z,31.71
2017-12-02T01:10:20.241Z,31.72
2017-12-02T01:11:20.663Z,31.73
2017-12-02T01:12:21.136Z,31.73
2017-12-02T01:13:21.601Z,31.76
2017-12-02T01:14:22.081Z,31.78
2017-12-02T01:15:22.823Z,31.79
2017-12-02T01:16:23.026Z,31.80
2017-12-02T01:18:23.971Z,31.84
2017-12-02T01:19:24.444Z,31.85
2017-12-02T01:20:24.961Z,31.86
2017-12-02T01:21:25.552Z,31.88
2017-12-02T01:22:25.861Z,31.91
2017-12-02T01:24:26.801Z,32.04
2017-12-02T01:25:27.380Z,32.11
2017-12-02T01:26:27.751Z,32.14
2017-12-02T01:29:29.190Z,32.13
2017-12-02T01:30:41.176Z,32.08
2017-12-02T01:31:30.107Z,32.02
2017-12-02T01:32:30.587Z,31.94
2017-12-02T01:34:31.532Z,31.73
2017-12-02T01:36:32.480Z,31.46
2017-12-02T01:37:32.952Z,31.33
2017-12-02T01:38:33.427Z,31.17
2017-12-02T01:39:34.067Z,31.04
2017-12-02T01:41:34.849Z,30.73
2017-12-02T01:42:35.318Z,30.55
2017-12-02T01:43:35.800Z,30.37
2017-12-02T01:44:36.280Z,30.23
2017-12-02T01:46:37.226Z,29.95
2017-12-02T01:47:37.734Z,29.88
2017-12-02T01:48:38.186Z,29.79
2017-12-02T01:50:39.131Z,29.73
2017-12-02T01:52:40.085Z,29.68
2017-12-02T01:54:41.032Z,29.72
2017-12-02T01:56:42.256Z,29.78
2017-12-02T01:58:42.938Z,29.84
2017-12-02T01:59:43.821Z,29.89
2017-12-02T02:00:43.899Z,29.93
2017-12-02T02:01:56.215Z,30.00
2017-12-02T02:02:44.854Z,30.04
2017-12-02T02:03:45.328Z,30.09
2017-12-02T02:04:45.849Z,30.15
2017-12-02T02:05:46.274Z,30.19
2017-12-02T02:06:46.879Z,30.24
2017-12-02T02:07:47.233Z,30.30
2017-12-02T02:08:47.769Z,30.35
2017-12-02T02:09:48.185Z,30.40
2017-12-02T02:10:48.655Z,30.43
2017-12-02T02:12:49.638Z,30.51
2017-12-02T02:13:50.089Z,30.55
2017-12-02T02:15:51.042Z,30.64
2017-12-02T02:18:04.235Z,30.72
2017-12-02T02:18:52.466Z,30.75
2017-12-02T02:19:52.985Z,30.79
2017-12-02T02:20:53.805Z,30.83
2017-12-02T02:21:53.884Z,30.86
2017-12-02T02:22:54.416Z,30.88
2017-12-02T02:23:54.842Z,30.91
2017-12-02T02:24:55.309Z,30.94
2017-12-02T02:25:55.824Z,30.96
2017-12-02T02:26:56.264Z,30.99
2017-12-02T02:28:08.274Z,31.02
2017-12-02T02:28:57.212Z,31.06
2017-12-02T02:29:57.679Z,31.12
2017-12-02T02:30:58.322Z,31.15
2017-12-02T02:31:58.801Z,31.19
2017-12-02T02:32:59.159Z,31.21
2017-12-02T02:33:59.582Z,31.24
2017-12-02T02:35:00.056Z,31.27
2017-12-02T02:36:00.549Z,31.29
2017-12-02T02:37:00.997Z,31.35
2017-12-02T02:39:01.991Z,31.41
2017-12-02T02:40:02.423Z,31.43
2017-12-02T02:41:02.918Z,31.45
2017-12-02T02:42:03.370Z,31.47
2017-12-02T02:44:04.348Z,31.50
2017-12-02T02:45:04.797Z,31.51
2017-12-02T02:46:05.345Z,31.55
2017-12-02T02:47:05.729Z,31.58
2017-12-02T02:48:18.461Z,31.60
2017-12-02T02:49:06.707Z,31.62
2017-12-02T02:50:07.153Z,31.65
2017-12-02T02:51:07.628Z,31.67
2017-12-02T02:52:08.093Z,31.68
2017-12-02T02:53:08.696Z,31.69
2017-12-02T02:54:09.045Z,31.72
2017-12-02T02:55:09.518Z,31.75
2017-12-02T02:56:09.984Z,31.76
2017-12-02T02:58:10.986Z,31.79
2017-12-02T02:59:11.433Z,31.81
2017-12-02T03:00:11.881Z,31.81
2017-12-02T03:02:12.985Z,31.83
2017-12-02T03:03:13.342Z,31.84
2017-12-02T03:04:13.770Z,31.86
2017-12-02T03:05:14.243Z,31.87
2017-12-02T03:06:14.881Z,31.91
2017-12-02T03:07:15.191Z,31.95
2017-12-02T03:08:27.290Z,32.04
2017-12-02T03:09:16.125Z,32.09
2017-12-02T03:10:16.604Z,32.12
2017-12-02T03:11:17.240Z,32.15
2017-12-02T03:12:17.549Z,32.15
2017-12-02T03:13:18.122Z,32.12
2017-12-02T03:15:18.967Z,31.95
2017-12-02T03:16:19.440Z,31.92
2017-12-02T03:17:19.913Z,31.83
2017-12-02T03:20:21.376Z,31.43
2017-12-02T03:21:21.849Z,31.31
2017-12-02T03:22:22.285Z,31.20
2017-12-02T03:23:22.804Z,31.06
2017-12-02T03:24:23.279Z,30.92
2017-12-02T03:25:23.702Z,30.75
2017-12-02T03:27:24.645Z,30.39
2017-12-02T03:28:25.121Z,30.20
2017-12-02T03:30:26.079Z,29.98
2017-12-02T03:31:26.555Z,29.87
2017-12-02T03:32:27.024Z,29.77
2017-12-02T03:33:27.506Z,29.71
2017-12-02T03:34:28.033Z,29.65
2017-12-02T03:35:28.459Z,29.61
2017-12-02T03:38:29.884Z,29.61
2017-12-02T03:39:41.287Z,29.63
2017-12-02T03:41:31.477Z,29.66
2017-12-02T03:42:31.820Z,29.68
2017-12-02T03:45:33.226Z,29.81
2017-12-02T03:46:33.749Z,29.87
2017-12-02T03:48:34.654Z,29.98
2017-12-02T03:49:35.129Z,30.03
2017-12-02T03:50:47.344Z,30.09
2017-12-02T03:51:36.076Z,30.14
2017-12-02T03:53:37.035Z,30.23
2017-12-02T03:54:37.510Z,30.27
2017-12-02T03:55:38.044Z,30.32
2017-12-02T03:56:38.462Z,30.35
2017-12-02T03:57:38.938Z,30.38
2017-12-02T03:58:39.435Z,30.42
2017-12-02T03:59:39.882Z,30.45
2017-12-02T04:00:40.504Z,30.48
2017-12-02T04:01:40.840Z,30.52
2017-12-02T04:02:41.474Z,30.55
2017-12-02T04:06:43.207Z,30.68
2017-12-02T04:07:43.688Z,30.71
2017-12-02T04:08:44.235Z,30.73
2017-12-02T04:10:45.156Z,30.78
2017-12-02T04:11:45.613Z,30.81
2017-12-02T04:13:46.534Z,30.85
2017-12-02T04:14:47.031Z,30.88
2017-12-02T04:15:48.391Z,30.91
2017-12-02T04:16:47.956Z,30.93
2017-12-02T04:17:48.424Z,30.96
2017-12-02T04:19:49.371Z,30.98
2017-12-02T04:20:49.903Z,31.01
2017-12-02T04:21:50.330Z,31.04
2017-12-02T04:22:50.801Z,31.07
2017-12-02T04:23:51.272Z,31.09
2017-12-02T04:24:51.739Z,31.10
2017-12-02T04:27:53.165Z,31.18
2017-12-02T04:28:53.640Z,31.20
2017-12-02T04:29:54.116Z,31.22
2017-12-02T04:30:54.635Z,31.24
2017-12-02T04:31:55.216Z,31.26
2017-12-02T04:32:55.531Z,31.27
2017-12-02T04:33:55.998Z,31.31
2017-12-02T04:34:56.564Z,31.33
2017-12-02T04:36:57.422Z,31.35
2017-12-02T04:37:57.895Z,31.36
2017-12-02T04:38:58.367Z,31.37
2017-12-02T04:39:58.840Z,31.38
2017-12-02T04:40:59.364Z,31.39
2017-12-02T04:41:59.786Z,31.40
2017-12-02T04:44:00.731Z,31.42
2017-12-02T04:46:01.721Z,31.44
2017-12-02T04:47:02.172Z,31.46
2017-12-02T04:48:02.623Z,31.46
2017-12-02T04:50:03.563Z,31.48
2017-12-02T04:51:04.089Z,31.50
2017-12-02T04:52:04.511Z,31.53
2017-12-02T04:53:04.984Z,31.56
2017-12-02T04:54:05.452Z,31.62
2017-12-02T04:55:05.928Z,31.70
2017-12-02T04:56:06.451Z,31.78
2017-12-02T04:57:06.874Z,31.84
2017-12-02T04:58:07.508Z,31.87
2017-12-02T04:59:07.818Z,31.88
2017-12-02T05:00:08.295Z,31.87
2017-12-02T05:01:20.401Z,31.81
2017-12-02T05:02:09.230Z,31.75
2017-12-02T05:04:10.182Z,31.60
2017-12-02T05:05:10.656Z,31.49
2017-12-02T05:06:11.231Z,31.37
2017-12-02T05:07:11.599Z,31.23
2017-12-02T05:09:12.550Z,30.96
2017-12-02T05:10:13.048Z,30.77
2017-12-02T05:11:13.601Z,30.60
2017-12-02T05:13:14.613Z,30.33
2017-12-02T05:14:14.924Z,30.13
2017-12-02T05:16:15.919Z,29.87
2017-12-02T05:17:16.351Z,29.76
2017-12-02T05:18:16.827Z,29.68
2017-12-02T05:20:17.773Z,29.53
2017-12-02T05:21:30.393Z,29.50
2017-12-02T05:23:19.209Z,29.46
2017-12-02T05:24:19.689Z,29.44
2017-12-02T05:25:20.190Z,29.44
2017-12-02T05:26:20.691Z,29.44
2017-12-02T05:27:21.110Z,29.43
2017-12-02T05:29:22.071Z,29.49
2017-12-02T05:30:22.549Z,29.53
2017-12-02T05:31:23.125Z,29.58
2017-12-02T05:34:24.456Z,29.71
2017-12-02T05:35:24.970Z,29.77
2017-12-02T05:39:26.865Z,29.95
2017-12-02T05:44:29.216Z,30.17
2017-12-02T05:45:29.689Z,30.20
2017-12-02T05:46:30.193Z,30.25
2017-12-02T05:50:32.069Z,30.41
2017-12-02T05:51:32.544Z,30.45
2017-12-02T05:52:33.012Z,30.48
2017-12-02T05:53:33.522Z,30.52
2017-12-02T05:54:33.991Z,30.55
2017-12-02T05:55:34.443Z,30.59
2017-12-02T05:56:34.940Z,30.63
2017-12-02T05:57:35.395Z,30.68
2017-12-02T05:58:35.911Z,30.69
2017-12-02T05:59:36.340Z,30.72
2017-12-02T06:00:36.814Z,30.75
2017-12-02T06:01:37.294Z,30.79
2017-12-02T06:02:37.762Z,30.82
2017-12-02T06:03:38.286Z,30.86
2017-12-02T06:05:39.208Z,30.90
2017-12-02T06:06:39.687Z,30.93
2017-12-02T06:07:40.132Z,30.95
2017-12-02T06:08:40.647Z,30.98
2017-12-02T06:09:41.107Z,31.00
2017-12-02T06:10:41.589Z,31.02
2017-12-02T06:12:42.497Z,31.08
2017-12-02T06:13:43.021Z,31.10
2017-12-02T06:15:43.910Z,31.13
2017-12-02T06:16:44.554Z,31.16
2017-12-02T06:17:44.862Z,31.18
2017-12-02T06:18:45.387Z,31.20
2017-12-02T06:19:45.803Z,31.21
2017-12-02T06:20:46.452Z,31.24
2017-12-02T06:21:46.776Z,31.25
2017-12-02T06:22:47.231Z,31.27
2017-12-02T06:24:48.342Z,31.33
2017-12-02T06:25:48.646Z,31.35
2017-12-02T06:26:49.112Z,31.38
2017-12-02T06:28:50.273Z,31.44
2017-12-02T06:29:50.536Z,31.46
2017-12-02T06:30:51.021Z,31.47
2017-12-02T06:32:51.953Z,31.50
2017-12-02T06:33:52.522Z,31.52
2017-12-02T06:34:52.898Z,31.54
2017-12-02T06:35:53.369Z,31.58
2017-12-02T06:36:53.842Z,31.64
2017-12-02T06:37:54.348Z,31.70
2017-12-02T06:38:54.831Z,31.76
2017-12-02T06:39:55.258Z,31.80
2017-12-02T06:40:55.731Z,31.81
2017-12-02T06:41:56.204Z,31.79
2017-12-02T06:42:56.670Z,31.76
2017-12-02T06:43:57.199Z,31.70
2017-12-02T06:44:57.621Z,31.63
2017-12-02T06:45:58.118Z,31.55
2017-12-02T06:46:58.561Z,31.47
2017-12-02T06:47:59.045Z,31.40
2017-12-02T06:48:59.565Z,31.29
2017-12-02T06:49:59.985Z,31.16
2017-12-02T06:51:00.458Z,31.03
2017-12-02T06:52:00.937Z,30.89
2017-12-02T06:53:01.407Z,30.73
2017-12-02T06:54:13.514Z,30.57
2017-12-02T06:55:02.358Z,30.40
2017-12-02T06:56:02.832Z,30.21
2017-12-02T06:57:03.308Z,30.03
2017-12-02T06:58:03.794Z,29.88
2017-12-02T06:59:04.310Z,29.76
2017-12-02T07:00:04.727Z,29.64
2017-12-02T07:01:05.240Z,29.55
2017-12-02T07:02:05.687Z,29.46
2017-12-02T07:03:06.163Z,29.37
2017-12-02T07:04:06.690Z,29.33
2017-12-02T07:05:07.118Z,29.31
2017-12-02T07:06:07.595Z,29.30
2017-12-02T07:07:08.068Z,29.29
2017-12-02T07:08:08.539Z,29.28
2017-12-02T07:09:09.073Z,29.30
2017-12-02T07:10:09.500Z,29.29
2017-12-02T07:11:10.198Z,29.31
2017-12-02T07:12:10.453Z,29.33
2017-12-02T07:13:10.930Z,29.35
2017-12-02T07:14:11.509Z,29.40
2017-12-02T07:15:11.887Z,29.44
2017-12-02T07:16:12.360Z,29.50
2017-12-02T07:17:12.838Z,29.55
2017-12-02T07:20:14.295Z,29.69
2017-12-02T07:21:14.737Z,29.73
2017-12-02T07:22:15.221Z,29.78
2017-12-02T07:23:15.697Z,29.82
2017-12-02T07:24:16.217Z,29.86
2017-12-02T07:25:16.650Z,29.88
2017-12-02T07:27:17.633Z,29.96
2017-12-02T07:28:18.077Z,29.99
2017-12-02T07:29:18.597Z,30.03
2017-12-02T07:33:20.456Z,30.16
2017-12-02T07:34:21.034Z,30.18
2017-12-02T07:35:21.409Z,30.22
2017-12-02T07:36:21.883Z,30.24
2017-12-02T07:37:22.353Z,30.26
2017-12-02T07:38:22.835Z,30.28
2017-12-02T07:40:23.837Z,30.33
2017-12-02T07:43:25.213Z,30.37
2017-12-02T07:45:26.157Z,30.38
2017-12-02T07:46:26.640Z,30.39
2017-12-02T07:48:27.584Z,30.41
2017-12-02T07:49:28.146Z,30.42
2017-12-02T07:52:29.485Z,30.45
2017-12-02T07:53:29.967Z,30.46
2017-12-02T07:54:30.565Z,30.49
2017-12-02T07:55:30.918Z,30.48
2017-12-02T07:57:31.878Z,30.52
2017-12-02T07:58:32.344Z,30.53
2017-12-02T07:59:32.863Z,30.54
2017-12-02T08:00:33.293Z,30.54
2017-12-02T08:01:33.768Z,30.55
2017-12-02T08:02:34.236Z,30.56
2017-12-02T08:03:34.718Z,30.57
2017-12-02T08:04:35.294Z,30.58
2017-12-02T08:06:36.136Z,30.61
2017-12-02T08:07:36.641Z,30.63
2017-12-02T08:08:37.140Z,30.65
2017-12-02T08:10:38.040Z,30.70
2017-12-02T08:11:38.516Z,30.72
2017-12-02T08:13:39.464Z,30.77
2017-12-02T08:14:39.939Z,30.79
2017-12-02T08:15:40.414Z,30.83
2017-12-02T08:17:41.361Z,30.87
2017-12-02T08:18:41.836Z,30.89
2017-12-02T08:20:42.836Z,30.95
2017-12-02T08:21:43.259Z,30.99
2017-12-02T10:12:00.600Z,29.76
2017-12-02T10:12:57.786Z,34.18
2017-12-02T10:14:09.510Z,34.91
2017-12-02T10:14:58.686Z,35.46
2017-12-02T10:15:59.133Z,36.18
2017-12-02T10:16:59.582Z,36.74
2017-12-02T10:20:00.934Z,40.36
2017-12-02T10:21:01.386Z,41.82
2017-12-02T10:24:02.786Z,45.85
2017-12-02T10:25:03.190Z,46.83
2017-12-02T10:28:04.542Z,49.11
2017-12-02T10:30:05.451Z,49.95
2017-12-02T10:32:06.378Z,50.25
2017-12-02T10:33:06.835Z,50.42
2017-12-02T10:34:07.268Z,50.41
2017-12-02T10:35:07.729Z,50.37
2017-12-02T10:36:08.337Z,50.37
2017-12-02T10:37:08.633Z,50.20
2017-12-02T10:40:10.157Z,49.61
2017-12-02T10:41:10.449Z,49.42
2017-12-02T10:42:10.927Z,49.13
2017-12-02T10:43:11.370Z,48.85
2017-12-02T10:44:11.854Z,48.53
2017-12-02T10:45:12.278Z,48.25
2017-12-02T10:46:12.764Z,47.93
2017-12-02T10:47:13.234Z,47.61
2017-12-02T10:48:13.743Z,47.36
2017-12-02T10:49:14.117Z,47.07
2017-12-02T10:50:14.597Z,46.80
2017-12-02T10:52:15.892Z,46.31
2017-12-02T10:53:16.115Z,46.10
2017-12-02T10:54:16.415Z,45.82
2017-12-02T10:55:16.926Z,45.62
2017-12-02T10:56:17.329Z,45.34
2017-12-02T10:57:17.790Z,45.13
2017-12-02T10:58:18.257Z,44.88
2017-12-02T10:59:18.721Z,44.63
2017-12-02T11:00:19.339Z,44.38
2017-12-02T11:01:19.642Z,44.21
2017-12-02T11:02:20.098Z,44.05
2017-12-02T11:03:20.565Z,43.80
2017-12-02T11:05:21.491Z,43.49
2017-12-02T11:07:22.417Z,43.08
2017-12-02T11:08:22.873Z,42.90
2017-12-02T11:09:23.344Z,42.72
2017-12-02T11:11:24.325Z,42.43
2017-12-02T11:13:25.198Z,42.08
2017-12-02T11:14:25.662Z,41.92
2017-12-02T11:15:26.122Z,41.80
2017-12-02T11:18:27.560Z,41.41
2017-12-02T11:19:27.986Z,41.27
2017-12-02T11:20:28.478Z,41.14
2017-12-02T11:21:28.918Z,41.02
2017-12-02T11:22:29.382Z,40.96
2017-12-02T11:23:29.848Z,40.83
2017-12-02T11:24:30.346Z,40.76
2017-12-02T11:25:30.772Z,40.68
2017-12-02T11:26:31.272Z,40.60
2017-12-02T11:28:32.183Z,40.43
2017-12-02T11:31:33.576Z,40.17
2017-12-02T11:33:34.503Z,40.06
2017-12-02T11:34:34.999Z,40.01
2017-12-02T11:35:35.443Z,39.93
2017-12-02T11:36:35.913Z,39.89
2017-12-02T11:37:36.377Z,39.83
2017-12-02T11:38:36.896Z,39.80
2017-12-02T11:39:37.315Z,39.74
2017-12-02T11:40:37.776Z,39.68
2017-12-02T11:41:38.248Z,39.63
2017-12-02T11:42:38.716Z,39.50
2017-12-02T11:43:39.176Z,39.52
2017-12-02T11:44:39.644Z,39.49
2017-12-02T11:45:40.118Z,39.41
2017-12-02T11:46:40.745Z,39.38
2017-12-02T11:47:41.055Z,39.33
2017-12-02T11:49:41.989Z,39.30
2017-12-02T11:50:42.485Z,39.25
2017-12-02T11:51:42.925Z,39.21
2017-12-02T11:52:43.424Z,39.20
2017-12-02T11:53:43.856Z,39.20
2017-12-02T11:54:44.495Z,39.16
2017-12-02T11:55:44.800Z,39.17
2017-12-02T11:56:45.268Z,39.14
2017-12-02T11:57:45.740Z,39.08
2017-12-02T11:58:46.367Z,39.04
2017-12-02T11:59:46.718Z,38.97
2017-12-02T12:01:47.611Z,38.94
2017-12-02T12:02:48.081Z,38.93
2017-12-02T12:03:48.704Z,38.91
2017-12-02T12:05:49.509Z,38.86
2017-12-02T12:06:50.120Z,38.85
2017-12-02T12:07:50.428Z,38.83
2017-12-02T12:08:50.895Z,38.82
2017-12-02T12:09:51.357Z,38.80
2017-12-02T12:10:51.991Z,38.80
2017-12-02T12:11:52.309Z,38.80
2017-12-02T12:12:52.771Z,38.76
2017-12-02T12:14:53.754Z,38.70
2017-12-02T12:15:54.182Z,38.66
2017-12-02T12:16:54.666Z,38.59
2017-12-02T12:17:55.118Z,38.52
2017-12-02T12:18:55.590Z,38.48
2017-12-02T12:21:56.989Z,38.32
2017-12-02T12:22:57.490Z,38.26
2017-12-02T12:23:58.098Z,38.23
2017-12-02T12:24:58.458Z,38.19
2017-12-02T12:25:58.875Z,38.15
2017-12-02T12:26:59.347Z,38.14
2017-12-02T12:27:59.818Z,38.07
2017-12-02T12:29:00.287Z,38.02
2017-12-02T12:30:00.749Z,37.96
2017-12-02T12:32:01.696Z,37.91
2017-12-02T12:33:02.166Z,37.86
2017-12-02T12:34:02.637Z,37.80
2017-12-02T12:35:03.107Z,37.74
2017-12-02T12:36:03.577Z,37.66
2017-12-02T12:37:04.041Z,37.62
2017-12-02T12:38:04.517Z,37.55
2017-12-02T12:39:04.987Z,37.46
2017-12-02T12:40:05.513Z,37.41
2017-12-02T12:41:05.928Z,37.36
2017-12-02T12:42:06.430Z,37.29
2017-12-02T12:43:07.030Z,37.22
2017-12-02T12:44:07.334Z,37.17
2017-12-02T12:45:07.811Z,37.12
2017-12-02T12:46:08.282Z,37.06
2017-12-02T12:48:09.287Z,37.01
2017-12-02T12:49:09.692Z,36.96
2017-12-02T12:50:10.162Z,36.89
2017-12-02T12:51:10.631Z,36.83
2017-12-02T12:52:11.096Z,36.80
2017-12-02T12:53:11.592Z,36.78
2017-12-02T12:57:13.616Z,36.64
2017-12-02T12:58:13.931Z,36.65
2017-12-02T12:59:14.392Z,36.63
2017-12-02T13:00:14.870Z,36.56
2017-12-02T13:02:15.808Z,36.56
2017-12-02T13:03:16.273Z,36.53
2017-12-02T13:05:17.226Z,36.49
2017-12-02T13:06:17.741Z,36.46
2017-12-02T13:07:18.161Z,36.46
2017-12-02T13:08:18.662Z,36.45
2017-12-02T13:09:19.095Z,36.43
2017-12-02T13:11:20.095Z,36.39
2017-12-02T13:12:20.561Z,36.37
2017-12-02T13:13:20.994Z,36.31
2017-12-02T13:14:21.456Z,36.27
2017-12-02T13:15:21.960Z,36.26
2017-12-02T13:16:22.480Z,36.27
2017-12-02T13:17:22.867Z,36.24
2017-12-02T13:18:23.518Z,36.19
2017-12-02T13:20:24.308Z,36.12
2017-12-02T13:21:24.754Z,36.09
2017-12-02T13:22:25.222Z,36.06
2017-12-02T13:23:25.693Z,36.01
2017-12-02T13:24:26.164Z,35.95
2017-12-02T13:25:26.627Z,35.90
2017-12-02T13:26:38.742Z,35.86
2017-12-02T13:27:27.577Z,35.82
2017-12-02T13:31:29.454Z,35.73
2017-12-02T13:32:29.934Z,35.71
2017-12-02T13:34:30.872Z,35.66
2017-12-02T13:35:31.343Z,35.62
2017-12-02T13:36:31.808Z,35.60
2017-12-02T13:37:32.284Z,35.55
2017-12-02T13:39:33.225Z,35.47
2017-12-02T13:40:33.693Z,35.41
2017-12-02T13:41:34.230Z,35.38
2017-12-02T13:43:35.103Z,35.28
2017-12-02T13:44:35.742Z,35.28
2017-12-02T13:45:36.051Z,35.25
2017-12-02T13:47:36.986Z,35.17
2017-12-02T13:48:37.463Z,35.17
2017-12-02T13:50:38.430Z,35.12
2017-12-02T13:51:38.876Z,35.14
2017-12-02T13:52:39.397Z,35.14
2017-12-02T13:53:39.824Z,35.07
2017-12-02T13:54:40.283Z,35.08
2017-12-02T13:55:40.759Z,35.10
2017-12-02T13:58:42.164Z,35.03
2017-12-02T13:59:42.645Z,34.93
2017-12-02T14:00:43.106Z,34.90
2017-12-02T14:01:43.583Z,34.90
2017-12-02T14:02:44.054Z,34.87
2017-12-02T14:03:44.526Z,34.88
2017-12-02T14:05:45.623Z,34.86
2017-12-02T14:07:46.408Z,34.84
2017-12-02T14:08:46.904Z,34.81
2017-12-02T14:09:47.350Z,34.83
2017-12-02T14:10:47.869Z,34.78
2017-12-02T14:12:48.754Z,34.75
2017-12-02T14:13:49.230Z,34.73
2017-12-02T14:14:49.703Z,34.71
2017-12-02T14:15:50.332Z,34.72
2017-12-02T14:16:50.643Z,34.74
2017-12-02T14:17:51.165Z,34.72
2017-12-02T14:18:51.584Z,34.72
2017-12-02T14:19:52.049Z,34.71
2017-12-02T14:20:52.685Z,34.71
2017-12-02T14:21:52.995Z,34.73
2017-12-02T14:22:53.630Z,34.73
2017-12-02T14:23:53.930Z,34.73
2017-12-02T14:24:54.409Z,34.72
2017-12-02T14:25:54.876Z,34.75
2017-12-02T14:26:55.346Z,34.74
2017-12-02T14:27:56.028Z,34.74
2017-12-02T14:29:56.759Z,34.75
2017-12-02T14:30:57.221Z,34.75
2017-12-02T14:31:57.698Z,34.74
2017-12-02T14:33:58.637Z,34.71
2017-12-02T14:34:59.103Z,34.72
2017-12-02T14:35:59.579Z,34.73
2017-12-02T14:37:00.052Z,34.73
2017-12-02T14:38:11.801Z,34.70
2017-12-02T14:39:01.015Z,34.71
2017-12-02T14:41:01.929Z,34.67
2017-12-02T14:42:02.425Z,34.69
2017-12-02T14:43:02.870Z,34.64
2017-12-02T14:44:03.364Z,34.68
2017-12-02T14:45:03.834Z,34.69
2017-12-02T14:47:04.751Z,34.62
2017-12-02T14:48:05.214Z,34.60
2017-12-02T14:49:05.688Z,34.60
2017-12-02T14:51:06.628Z,34.57
2017-12-02T14:52:07.102Z,34.57
2017-12-02T14:53:07.562Z,34.54
2017-12-02T14:54:08.038Z,34.54
2017-12-02T14:55:08.510Z,34.54
2017-12-02T14:56:09.010Z,34.54
2017-12-02T14:57:09.448Z,34.54
2017-12-02T14:58:09.919Z,34.51
2017-12-02T14:59:10.391Z,34.50
2017-12-02T15:00:10.851Z,34.49
2017-12-02T15:01:11.325Z,34.50
2017-12-02T15:03:12.264Z,34.48
2017-12-02T15:04:12.728Z,34.47
2017-12-02T15:06:13.676Z,34.45
2017-12-02T15:07:14.142Z,34.44
2017-12-02T15:08:14.663Z,34.37
2017-12-02T15:09:15.082Z,34.38
2017-12-02T15:10:15.600Z,34.39
2017-12-02T15:11:16.016Z,34.35
2017-12-02T15:13:16.983Z,34.33
2017-12-02T15:14:17.429Z,34.30
2017-12-02T15:15:17.900Z,34.26
2017-12-02T15:16:18.367Z,34.23
2017-12-02T15:18:19.357Z,34.25
2017-12-02T15:19:19.774Z,34.23
2017-12-02T15:20:20.262Z,34.23
2017-12-02T15:21:20.713Z,34.17
2017-12-02T15:22:21.184Z,34.13
2017-12-02T15:24:22.151Z,34.08
2017-12-02T15:25:22.751Z,34.08
2017-12-02T15:27:23.527Z,34.00
2017-12-02T15:28:23.990Z,33.99
2017-12-02T15:29:24.518Z,33.98
2017-12-02T15:31:25.405Z,33.91
2017-12-02T15:32:25.873Z,33.86
2017-12-02T15:34:26.808Z,33.82
2017-12-02T15:35:27.272Z,33.83
2017-12-02T15:36:27.778Z,33.82
2017-12-02T15:39:29.155Z,33.78
2017-12-02T15:40:29.624Z,33.78
2017-12-02T15:41:30.092Z,33.75
2017-12-02T15:42:30.806Z,33.75
2017-12-02T15:43:31.031Z,33.73
2017-12-02T15:45:43.866Z,33.71
2017-12-02T15:46:32.429Z,33.68
2017-12-02T15:47:32.906Z,33.68
2017-12-02T15:48:33.373Z,33.66
2017-12-02T15:49:33.842Z,33.62
2017-12-02T15:50:34.352Z,33.60
2017-12-02T15:51:34.779Z,33.58
2017-12-02T15:53:35.716Z,33.57
2017-12-02T15:54:36.182Z,33.57
2017-12-02T15:55:36.823Z,33.55
2017-12-02T15:56:37.118Z,33.58
2017-12-02T15:57:37.581Z,33.53
2017-12-02T15:59:38.532Z,33.56
2017-12-02T16:00:50.931Z,33.52
2017-12-02T16:01:39.454Z,33.51
2017-12-02T16:02:39.922Z,33.46
2017-12-02T16:03:40.397Z,33.47
2017-12-02T16:04:40.860Z,33.48
2017-12-02T16:05:41.327Z,33.46
2017-12-02T16:06:41.794Z,33.45
2017-12-02T16:07:42.263Z,33.44
2017-12-02T16:08:42.731Z,33.42
2017-12-02T16:09:43.201Z,33.43
2017-12-02T16:10:43.702Z,33.41
2017-12-02T16:11:44.136Z,33.40
2017-12-02T16:12:44.605Z,33.39
2017-12-02T16:13:45.073Z,33.40
2017-12-02T16:14:45.541Z,33.38
2017-12-02T16:15:46.008Z,33.38
2017-12-02T16:16:46.476Z,33.35
2017-12-02T16:17:46.945Z,33.33
2017-12-02T16:18:47.413Z,33.36
2017-12-02T16:19:47.883Z,33.36
2017-12-02T16:20:48.406Z,33.36
2017-12-02T16:21:48.816Z,33.36
2017-12-02T16:22:49.284Z,33.36
2017-12-02T16:23:49.755Z,33.37
2017-12-02T16:24:50.218Z,33.37
2017-12-02T16:25:50.690Z,33.39
2017-12-02T16:26:51.155Z,33.39
2017-12-02T16:27:51.631Z,33.40
2017-12-02T16:28:52.122Z,33.39
2017-12-02T16:29:52.567Z,33.38
2017-12-02T16:32:53.992Z,33.36
2017-12-02T16:33:54.458Z,33.38
2017-12-02T16:34:54.903Z,33.39
2017-12-02T16:35:55.370Z,33.41
2017-12-02T16:36:55.840Z,33.43
2017-12-02T16:37:56.301Z,33.42
2017-12-02T16:38:57.170Z,33.44
2017-12-02T16:41:58.199Z,33.43
2017-12-02T16:42:58.669Z,33.44
2017-12-02T16:43:59.112Z,33.42
2017-12-02T16:44:59.572Z,33.42
2017-12-02T16:46:00.046Z,33.43
2017-12-02T16:49:01.477Z,33.44
2017-12-02T16:51:02.415Z,33.42
2017-12-02T16:52:02.851Z,33.43
2017-12-02T16:54:03.867Z,33.46
2017-12-02T16:56:04.721Z,33.44
2017-12-02T16:58:05.649Z,33.46
2017-12-02T17:00:06.614Z,33.46
2017-12-02T17:02:07.524Z,33.47
2017-12-02T17:03:07.992Z,33.47
2017-12-02T17:05:08.918Z,33.49
2017-12-02T17:07:09.858Z,33.52
2017-12-02T17:08:10.325Z,33.54
2017-12-02T17:09:10.788Z,33.56
2017-12-02T17:10:22.942Z,33.54
2017-12-02T17:11:11.727Z,33.54
2017-12-02T17:12:12.195Z,33.57
2017-12-02T17:13:12.665Z,33.57
2017-12-02T17:14:13.129Z,33.57
2017-12-02T17:16:14.065Z,33.55
2017-12-02T17:18:15.159Z,33.54
2017-12-02T17:21:16.568Z,33.56
2017-12-02T17:22:16.864Z,33.57
2017-12-02T17:23:17.331Z,33.55
2017-12-02T17:25:18.285Z,33.53
2017-12-02T17:27:19.192Z,33.51
2017-12-02T17:28:19.665Z,33.51
2017-12-02T17:29:20.295Z,33.46
2017-12-02T17:30:20.599Z,33.43
2017-12-02T17:31:21.224Z,33.46
2017-12-02T17:32:32.957Z,33.43
2017-12-02T17:33:22.163Z,33.43
2017-12-02T17:34:22.459Z,33.42
2017-12-02T17:35:22.930Z,33.42
2017-12-02T17:36:23.397Z,33.42
2017-12-02T17:37:23.952Z,33.42
2017-12-02T17:38:24.325Z,33.41
2017-12-02T17:39:25.202Z,33.39
2017-12-02T17:42:26.248Z,33.39
2017-12-02T17:43:26.662Z,33.39
2017-12-02T17:44:27.129Z,33.36
2017-12-02T17:45:27.593Z,33.40
2017-12-02T17:47:28.582Z,33.35
2017-12-02T17:48:28.995Z,33.35
2017-12-02T17:49:29.457Z,33.37
2017-12-02T17:50:30.089Z,33.38
2017-12-02T17:51:30.558Z,33.36
2017-12-02T17:52:31.027Z,33.35
2017-12-02T17:53:31.327Z,33.38
2017-12-02T17:54:31.817Z,33.37
2017-12-02T17:55:32.287Z,33.33
2017-12-02T17:56:32.723Z,33.32
2017-12-02T17:57:33.219Z,33.36
2017-12-02T17:58:33.661Z,33.33
2017-12-02T17:59:34.126Z,33.33
2017-12-02T18:00:34.587Z,33.33
2017-12-02T18:01:35.085Z,33.34
2017-12-02T18:03:35.991Z,33.33
2017-12-02T18:04:36.457Z,33.33
2017-12-02T18:06:37.390Z,33.36
2017-12-02T18:07:37.850Z,33.36
2017-12-02T18:09:38.812Z,33.35